createdAt,value
2017-09-04T00:00:00.949Z,15.16
2017-09-04T00:02:29.309Z,15.22
2017-09-04T00:04:59.224Z,15.15
2017-09-04T00:07:27.579Z,14.95
2017-09-04T00:09:55.958Z,14.92
2017-09-04T00:12:24.859Z,14.92
2017-09-04T00:14:53.235Z,14.82
2017-09-04T00:17:21.606Z,14.87
2017-09-04T00:19:50.298Z,14.80
2017-09-04T00:22:19.265Z,14.76
2017-09-04T00:24:47.639Z,14.81
2017-09-04T00:27:16.386Z,14.74
2017-09-04T00:29:44.727Z,14.65
2017-09-04T00:32:13.789Z,14.65
2017-09-04T00:34:42.561Z,14.59
2017-09-04T00:37:11.561Z,14.53
2017-09-04T00:39:39.890Z,14.48
2017-09-04T00:42:08.533Z,14.45
2017-09-04T00:44:37.134Z,14.41
2017-09-04T00:47:06.409Z,14.34
2017-09-04T00:49:35.086Z,14.20
2017-09-04T00:52:04.791Z,14.25
2017-09-04T00:54:33.162Z,14.41
2017-09-04T00:57:02.059Z,14.41
2017-09-04T00:59:30.437Z,14.45
2017-09-04T01:01:58.806Z,14.31
2017-09-04T01:04:27.474Z,14.26
2017-09-04T01:06:56.623Z,14.05
2017-09-04T01:09:25.895Z,13.93
2017-09-04T01:11:55.030Z,13.78
2017-09-04T01:14:24.946Z,13.61
2017-09-04T01:16:53.319Z,13.49
2017-09-04T01:19:22.928Z,13.59
2017-09-04T01:21:51.390Z,13.70
2017-09-04T01:24:19.791Z,13.70
2017-09-04T01:26:50.211Z,13.70
2017-09-04T01:29:18.606Z,13.75
2017-09-04T01:31:48.652Z,13.66
2017-09-04T01:34:17.662Z,13.66
2017-09-04T01:36:46.782Z,13.53
2017-09-04T01:39:15.144Z,13.45
2017-09-04T01:41:44.874Z,13.58
2017-09-04T01:44:16.480Z,13.59
2017-09-04T01:46:45.202Z,13.62
2017-09-04T01:49:14.493Z,13.58
2017-09-04T01:51:42.834Z,13.57
2017-09-04T01:54:11.555Z,13.68
2017-09-04T01:56:39.933Z,13.72
2017-09-04T01:59:08.650Z,13.76
2017-09-04T02:01:37.508Z,13.82
2017-09-04T02:04:05.876Z,13.71
2017-09-04T02:06:34.998Z,13.72
2017-09-04T02:09:03.812Z,13.76
2017-09-04T02:11:32.192Z,13.74
2017-09-04T02:14:00.535Z,13.49
2017-09-04T02:16:30.658Z,13.36
2017-09-04T02:18:59.025Z,13.49
2017-09-04T02:21:27.643Z,13.48
2017-09-04T02:23:57.496Z,13.61
2017-09-04T02:26:25.838Z,13.60
2017-09-04T02:28:54.994Z,13.52
2017-09-04T02:31:23.802Z,13.43
2017-09-04T02:33:52.472Z,13.51
2017-09-04T02:36:20.859Z,13.54
2017-09-04T02:38:49.865Z,13.59
2017-09-04T02:41:18.238Z,13.62
2017-09-04T02:43:46.609Z,13.65
2017-09-04T02:46:16.357Z,13.60
2017-09-04T02:48:44.709Z,13.48
2017-09-04T02:51:13.093Z,13.43
2017-09-04T02:53:41.777Z,13.36
2017-09-04T02:56:11.037Z,13.25
2017-09-04T02:58:39.405Z,13.28
2017-09-04T03:01:08.790Z,13.29
2017-09-04T03:03:37.123Z,13.32
2017-09-04T03:06:06.663Z,13.35
2017-09-04T03:08:35.291Z,13.41
2017-09-04T03:11:03.643Z,13.14
2017-09-04T03:13:31.970Z,13.03
2017-09-04T03:16:00.853Z,13.00
2017-09-04T03:18:29.317Z,13.01
2017-09-04T03:20:57.694Z,12.90
2017-09-04T03:23:27.167Z,12.94
2017-09-04T03:25:56.671Z,12.93
2017-09-04T03:28:25.050Z,12.68
2017-09-04T03:30:53.749Z,12.56
2017-09-04T03:33:22.826Z,12.59
2017-09-04T03:35:51.183Z,12.55
2017-09-04T03:38:19.871Z,12.64
2017-09-04T03:40:49.051Z,12.60
2017-09-04T03:43:17.401Z,12.51
2017-09-04T03:45:46.345Z,12.51
2017-09-04T03:48:14.706Z,12.56
2017-09-04T03:50:43.083Z,12.53
2017-09-04T03:53:11.801Z,12.48
2017-09-04T03:55:40.151Z,12.43
2017-09-04T03:58:08.733Z,12.44
2017-09-04T04:00:37.379Z,12.45
2017-09-04T04:03:05.745Z,12.58
2017-09-04T04:05:34.097Z,12.63
2017-09-04T04:08:03.827Z,12.59
2017-09-04T04:10:32.218Z,12.59
2017-09-04T04:13:00.864Z,12.49
2017-09-04T04:15:29.605Z,12.42
2017-09-04T04:17:58.382Z,12.50
2017-09-04T04:20:27.996Z,12.47
2017-09-04T04:22:56.726Z,12.57
2017-09-04T04:25:25.161Z,12.56
2017-09-04T04:27:53.532Z,12.56
2017-09-04T04:30:22.266Z,12.55
2017-09-04T04:32:51.411Z,12.45
2017-09-04T04:35:19.742Z,12.44
2017-09-04T04:37:49.961Z,12.19
2017-09-04T04:40:18.302Z,12.00
2017-09-04T04:42:46.650Z,11.84
2017-09-04T04:45:15.502Z,11.78
2017-09-04T04:47:44.472Z,11.85
2017-09-04T04:50:16.352Z,11.86
2017-09-04T04:52:45.243Z,11.69
2017-09-04T04:55:13.591Z,11.86
2017-09-04T04:57:42.697Z,11.79
2017-09-04T05:00:12.175Z,11.94
2017-09-04T05:02:40.537Z,11.88
2017-09-04T05:05:09.659Z,12.10
2017-09-04T05:07:38.290Z,12.19
2017-09-04T05:10:06.647Z,12.06
2017-09-04T05:12:35.013Z,12.23
2017-09-04T05:15:04.483Z,12.49
2017-09-04T05:17:32.848Z,12.46
2017-09-04T05:20:01.955Z,12.59
2017-09-04T05:22:31.428Z,12.39
2017-09-04T05:24:59.775Z,12.57
2017-09-04T05:27:29.178Z,12.77
2017-09-04T05:29:57.962Z,12.81
2017-09-04T05:32:26.354Z,12.80
2017-09-04T05:34:54.730Z,12.74
2017-09-04T05:37:23.434Z,12.90
2017-09-04T05:39:52.500Z,12.98
2017-09-04T05:42:20.917Z,13.18
2017-09-04T05:44:49.648Z,13.21
2017-09-04T05:47:18.053Z,13.28
2017-09-04T05:49:46.428Z,13.51
2017-09-04T05:52:15.490Z,13.55
2017-09-04T05:54:45.259Z,13.53
2017-09-04T05:57:13.637Z,13.83
2017-09-04T05:59:42.492Z,14.09
2017-09-04T06:02:10.860Z,14.21
2017-09-04T06:04:39.683Z,14.41
2017-09-04T06:07:09.918Z,14.48
2017-09-04T06:09:38.372Z,14.56
2017-09-04T06:12:07.068Z,14.64
2017-09-04T06:14:35.700Z,14.76
2017-09-04T06:17:04.879Z,14.75
2017-09-04T06:19:35.439Z,15.14
2017-09-04T06:22:04.545Z,15.28
2017-09-04T06:24:32.923Z,15.49
2017-09-04T06:27:04.111Z,15.46
2017-09-04T06:29:33.013Z,15.52
2017-09-04T06:32:02.053Z,15.23
2017-09-04T06:34:30.653Z,15.40
2017-09-04T06:36:59.548Z,15.59
2017-09-04T06:39:28.657Z,15.82
2017-09-04T06:41:57.838Z,15.95
2017-09-04T06:44:27.690Z,16.11
2017-09-04T06:46:56.038Z,16.23
2017-09-04T06:49:24.386Z,16.56
2017-09-04T06:51:53.920Z,16.83
2017-09-04T06:54:22.272Z,17.00
2017-09-04T06:56:50.703Z,17.44
2017-09-04T06:59:20.267Z,17.20
2017-09-04T07:01:50.502Z,17.50
2017-09-04T07:04:22.910Z,17.88
2017-09-04T07:06:52.580Z,18.06
2017-09-04T07:09:20.918Z,18.42
2017-09-04T07:11:49.279Z,18.95
2017-09-04T07:14:17.951Z,19.24
2017-09-04T07:16:46.353Z,19.57
2017-09-04T07:19:15.419Z,19.86
2017-09-04T07:21:44.793Z,20.11
2017-09-04T07:24:13.952Z,20.27
2017-09-04T07:26:42.299Z,20.77
2017-09-04T07:29:11.775Z,21.41
2017-09-04T07:31:40.347Z,22.11
2017-09-04T07:34:09.529Z,22.56
2017-09-04T07:36:38.184Z,23.33
2017-09-04T07:39:06.591Z,23.98
2017-09-04T07:41:34.968Z,24.07
2017-09-04T07:44:03.601Z,24.09
2017-09-04T07:46:31.970Z,24.77
2017-09-04T07:49:00.326Z,25.64
2017-09-04T07:51:29.117Z,26.48
2017-09-04T07:53:57.458Z,26.87
2017-09-04T07:56:25.960Z,27.09
2017-09-04T07:58:54.839Z,27.94
2017-09-04T08:01:23.176Z,28.73
2017-09-04T08:03:51.599Z,29.50
2017-09-04T08:06:20.464Z,29.74
2017-09-04T08:08:48.873Z,29.39
2017-09-04T08:11:17.959Z,30.12
2017-09-04T08:13:48.864Z,31.04
2017-09-04T08:16:17.217Z,31.69
2017-09-04T08:18:45.584Z,31.73
2017-09-04T08:21:15.254Z,32.05
2017-09-04T08:23:44.511Z,32.41
2017-09-04T08:26:12.961Z,33.04
2017-09-04T08:28:41.704Z,33.38
2017-09-04T08:31:10.699Z,33.80
2017-09-04T08:33:39.119Z,34.04
2017-09-04T08:36:07.916Z,34.11
2017-09-04T08:38:38.331Z,34.00
2017-09-04T08:41:08.292Z,34.27
2017-09-04T08:43:37.752Z,34.66
2017-09-04T08:46:06.109Z,34.99
2017-09-04T08:48:34.728Z,35.60
2017-09-04T08:51:03.495Z,35.77
2017-09-04T08:53:32.171Z,35.75
2017-09-04T08:56:00.805Z,36.43
2017-09-04T08:58:29.813Z,36.97
2017-09-04T09:00:59.534Z,37.08
2017-09-04T09:03:27.892Z,37.42
2017-09-04T09:05:57.534Z,37.43
2017-09-04T09:08:26.859Z,37.50
2017-09-04T09:10:55.223Z,36.61
2017-09-04T09:13:23.991Z,37.43
2017-09-04T09:15:52.364Z,37.79
2017-09-04T09:18:20.816Z,38.42
2017-09-04T09:20:50.675Z,38.96
2017-09-04T09:23:19.135Z,39.80
2017-09-04T09:25:47.624Z,39.44
2017-09-04T09:28:16.896Z,39.95
2017-09-04T09:30:45.487Z,40.14
2017-09-04T09:33:14.001Z,41.09
2017-09-04T09:35:43.227Z,40.91
2017-09-04T09:38:12.369Z,40.68
2017-09-04T09:40:40.787Z,40.02
2017-09-04T09:43:09.680Z,40.34
2017-09-04T09:45:38.150Z,39.74
2017-09-04T09:48:06.505Z,39.60
2017-09-04T09:50:35.205Z,39.80
2017-09-04T09:53:03.860Z,39.80
2017-09-04T09:55:32.630Z,40.02
2017-09-04T09:58:01.849Z,40.86
2017-09-04T10:00:30.949Z,41.71
2017-09-04T10:02:59.434Z,40.61
2017-09-04T10:05:29.619Z,39.69
2017-09-04T10:07:58.752Z,38.48
2017-09-04T10:10:27.870Z,39.12
2017-09-04T10:12:57.455Z,38.96
2017-09-04T10:15:25.818Z,39.22
2017-09-04T10:17:54.223Z,40.37
2017-09-04T10:20:25.263Z,40.90
2017-09-04T10:22:53.911Z,40.71
2017-09-04T10:25:22.839Z,41.75
2017-09-04T10:27:51.762Z,42.84
2017-09-04T10:30:20.476Z,42.93
2017-09-04T10:32:48.844Z,42.25
2017-09-04T10:35:18.769Z,41.78
2017-09-04T10:37:47.162Z,38.90
2017-09-04T10:40:15.549Z,38.59
2017-09-04T10:42:44.309Z,39.24
2017-09-04T10:45:12.714Z,37.34
2017-09-04T10:47:41.090Z,34.76
2017-09-04T10:50:09.889Z,33.92
2017-09-04T10:52:38.253Z,33.88
2017-09-04T10:55:06.639Z,35.74
2017-09-04T10:57:35.659Z,38.06
2017-09-04T11:00:04.028Z,37.40
2017-09-04T11:02:34.418Z,38.15
2017-09-04T11:05:03.099Z,39.76
2017-09-04T11:07:31.478Z,40.63
2017-09-04T11:10:00.776Z,41.37
2017-09-04T11:12:29.711Z,42.23
2017-09-04T11:14:58.475Z,42.01
2017-09-04T11:17:26.843Z,41.46
2017-09-04T11:19:55.485Z,41.31
2017-09-04T11:22:23.824Z,40.54
2017-09-04T11:24:52.340Z,40.82
2017-09-04T11:27:21.091Z,41.18
2017-09-04T11:29:50.155Z,41.28
2017-09-04T11:32:18.493Z,40.93
2017-09-04T11:34:47.935Z,38.19
2017-09-04T11:37:16.450Z,35.63
2017-09-04T11:39:44.864Z,34.37
2017-09-04T11:42:14.408Z,35.95
2017-09-04T11:44:42.769Z,38.03
2017-09-04T11:47:11.923Z,39.71
2017-09-04T11:49:41.351Z,40.53
2017-09-04T11:52:09.702Z,40.93
2017-09-04T11:54:38.918Z,41.36
2017-09-04T11:57:08.666Z,40.99
2017-09-04T11:59:40.964Z,40.82
2017-09-04T12:02:09.655Z,40.77
2017-09-04T12:04:38.034Z,40.84
2017-09-04T12:07:06.435Z,41.45
2017-09-04T12:09:36.683Z,40.64
2017-09-04T12:12:05.178Z,40.77
2017-09-04T12:14:34.472Z,41.47
2017-09-04T12:17:04.225Z,40.82
2017-09-04T12:19:32.993Z,40.60
2017-09-04T12:22:01.619Z,40.87
2017-09-04T12:24:30.441Z,42.02
2017-09-04T12:26:58.796Z,40.91
2017-09-04T12:29:27.146Z,37.74
2017-09-04T12:31:55.920Z,36.49
2017-09-04T12:34:24.327Z,37.22
2017-09-04T12:36:53.261Z,35.55
2017-09-04T12:39:22.187Z,36.96
2017-09-04T12:41:51.277Z,38.14
2017-09-04T12:44:20.433Z,38.63
2017-09-04T12:46:49.911Z,36.84
2017-09-04T12:49:18.426Z,35.77
2017-09-04T12:51:46.824Z,34.23
2017-09-04T12:54:15.528Z,33.83
2017-09-04T12:56:44.866Z,34.07
2017-09-04T12:59:13.224Z,34.29
2017-09-04T13:01:42.085Z,35.67
2017-09-04T13:04:10.438Z,36.53
2017-09-04T13:06:38.925Z,37.22
2017-09-04T13:09:09.240Z,38.17
2017-09-04T13:14:56.657Z,37.96
2017-09-04T13:17:30.583Z,37.83
2017-09-04T13:34:10.097Z,36.41
2017-09-04T13:39:52.930Z,36.32
2017-09-04T13:42:27.459Z,36.07
2017-09-04T13:48:14.623Z,34.80
2017-09-04T13:53:51.046Z,33.80
2017-09-04T13:59:29.270Z,32.41
2017-09-04T14:01:58.284Z,32.02
2017-09-04T14:04:28.465Z,31.78
2017-09-04T14:07:03.171Z,32.17
2017-09-04T14:09:31.522Z,31.96
2017-09-04T14:15:19.918Z,30.83
2017-09-04T14:17:53.022Z,30.67
2017-09-04T14:20:23.356Z,30.51
2017-09-04T14:22:51.754Z,30.03
2017-09-04T14:25:20.924Z,30.11
2017-09-04T14:27:49.416Z,29.99
2017-09-04T14:30:18.559Z,29.89
2017-09-04T14:32:47.773Z,29.51
2017-09-04T14:35:16.412Z,29.29
2017-09-04T14:37:44.842Z,29.19
2017-09-04T14:40:15.954Z,29.09
2017-09-04T14:42:46.922Z,28.93
2017-09-04T14:45:16.972Z,28.97
2017-09-04T14:47:46.650Z,28.86
2017-09-04T14:50:15.251Z,28.82
2017-09-04T14:52:44.313Z,28.80
2017-09-04T14:55:12.875Z,29.25
2017-09-04T14:57:41.251Z,29.21
2017-09-04T15:00:10.787Z,28.80
2017-09-04T15:02:39.183Z,28.58
2017-09-04T15:05:07.579Z,28.34
2017-09-04T15:07:36.372Z,28.22
2017-09-04T15:10:04.752Z,28.02
2017-09-04T15:12:33.157Z,27.91
2017-09-04T15:15:02.152Z,27.88
2017-09-04T15:17:30.903Z,28.06
2017-09-04T15:19:59.285Z,28.13
2017-09-04T15:22:28.700Z,28.13
2017-09-04T15:24:57.267Z,28.05
2017-09-04T15:27:25.631Z,28.20
2017-09-04T15:29:54.445Z,28.38
2017-09-04T15:32:23.054Z,28.31
2017-09-04T15:34:51.542Z,27.97
2017-09-04T15:37:20.572Z,28.25
2017-09-04T15:39:48.992Z,28.38
2017-09-04T15:42:17.404Z,28.13
2017-09-04T15:44:47.038Z,28.09
2017-09-04T15:47:15.909Z,27.92
2017-09-04T15:49:45.195Z,27.83
2017-09-04T15:52:14.080Z,27.83
2017-09-04T15:54:42.439Z,27.80
2017-09-04T15:57:12.350Z,27.53
2017-09-04T15:59:43.287Z,27.40
2017-09-04T16:02:11.663Z,27.26
2017-09-04T16:04:40.088Z,27.10
2017-09-04T16:07:11.611Z,27.08
2017-09-04T16:09:40.008Z,27.01
2017-09-04T16:12:14.524Z,26.91
2017-09-04T16:14:56.572Z,27.06
2017-09-04T16:17:35.353Z,26.87
2017-09-04T16:20:04.142Z,26.94
2017-09-04T16:22:44.317Z,26.64
2017-09-04T16:25:13.571Z,26.66
2017-09-04T16:27:43.743Z,26.39
2017-09-04T16:30:13.404Z,26.35
2017-09-04T16:32:43.735Z,26.32
2017-09-04T16:35:24.849Z,26.29
2017-09-04T16:37:55.723Z,26.26
2017-09-04T16:40:24.683Z,26.18
2017-09-04T16:43:04.251Z,26.01
2017-09-04T16:45:36.111Z,25.90
2017-09-04T16:48:05.318Z,25.96
2017-09-04T16:50:37.294Z,26.00
2017-09-04T16:53:09.690Z,25.94
2017-09-04T16:55:39.569Z,25.83
2017-09-04T16:58:12.769Z,25.92
2017-09-04T17:00:41.841Z,25.65
2017-09-04T17:03:10.240Z,25.53
2017-09-04T17:05:39.459Z,25.32
2017-09-04T17:08:07.924Z,25.35
2017-09-04T17:10:42.327Z,25.36
2017-09-04T17:13:10.753Z,25.20
2017-09-04T17:15:45.110Z,25.11
2017-09-04T17:18:13.598Z,25.04
2017-09-04T17:20:43.644Z,25.06
2017-09-04T17:23:14.002Z,25.01
2017-09-04T17:25:44.003Z,24.93
2017-09-04T17:28:12.429Z,24.82
2017-09-04T17:30:41.261Z,24.82
2017-09-04T17:33:10.428Z,24.79
2017-09-04T17:35:41.089Z,24.64
2017-09-04T17:38:09.796Z,24.55
2017-09-04T17:40:38.159Z,24.38
2017-09-04T17:43:07.482Z,24.11
2017-09-04T17:45:36.472Z,24.19
2017-09-04T17:48:05.498Z,24.11
2017-09-04T17:50:33.926Z,24.10
2017-09-04T17:53:02.776Z,24.01
2017-09-04T17:55:31.676Z,23.92
2017-09-04T17:58:00.143Z,23.95
2017-09-04T18:00:29.519Z,23.83
2017-09-04T18:02:57.920Z,23.58
2017-09-04T18:05:27.251Z,23.51
2017-09-04T18:07:56.662Z,23.20
2017-09-04T18:10:25.249Z,23.23
2017-09-04T18:12:53.666Z,22.98
2017-09-04T18:15:22.328Z,23.08
2017-09-04T18:17:51.525Z,22.96
2017-09-04T18:20:20.998Z,22.68
2017-09-04T18:22:49.807Z,22.84
2017-09-04T18:25:18.458Z,22.68
2017-09-04T18:27:46.951Z,22.61
2017-09-04T18:30:16.126Z,22.52
2017-09-04T18:32:44.495Z,22.22
2017-09-04T18:35:12.858Z,22.23
2017-09-04T18:37:41.498Z,22.24
2017-09-04T18:40:10.069Z,21.99
2017-09-04T18:42:38.444Z,21.77
2017-09-04T18:45:07.155Z,21.76
2017-09-04T18:47:35.624Z,21.70
2017-09-04T18:50:03.981Z,21.53
2017-09-04T18:52:34.061Z,21.45
2017-09-04T18:55:02.411Z,21.36
2017-09-04T18:57:30.819Z,21.09
2017-09-04T18:59:59.722Z,20.97
2017-09-04T19:02:28.196Z,20.84
2017-09-04T19:04:56.589Z,20.80
2017-09-04T19:07:25.704Z,20.65
2017-09-04T19:09:54.163Z,20.61
2017-09-04T19:12:22.526Z,20.49
2017-09-04T19:14:51.377Z,20.28
2017-09-04T19:17:19.754Z,20.24
2017-09-04T19:19:48.132Z,20.10
2017-09-04T19:22:16.891Z,20.18
2017-09-04T19:24:45.938Z,20.14
2017-09-04T19:27:14.329Z,20.06
2017-09-04T19:29:43.247Z,19.76
2017-09-04T19:32:12.176Z,19.67
2017-09-04T19:34:41.303Z,19.67
2017-09-04T19:37:10.389Z,19.68
2017-09-04T19:39:38.781Z,19.67
2017-09-04T19:42:07.284Z,19.53
2017-09-04T19:44:38.480Z,19.47
2017-09-04T19:47:07.791Z,19.35
2017-09-04T19:52:13.078Z,19.31
2017-09-04T19:54:41.485Z,19.02
2017-09-04T19:57:10.643Z,19.08
2017-09-04T19:59:39.306Z,18.86
2017-09-04T20:02:08.434Z,19.10
2017-09-04T20:04:36.853Z,18.99
2017-09-04T20:07:05.518Z,18.67
2017-09-04T20:09:33.897Z,18.46
2017-09-04T20:12:02.284Z,18.42
2017-09-04T20:14:31.779Z,18.38
2017-09-04T20:17:01.170Z,18.28
2017-09-04T20:19:31.019Z,18.14
2017-09-04T20:22:00.017Z,18.08
2017-09-04T20:24:28.678Z,18.05
2017-09-04T20:26:57.059Z,17.99
2017-09-04T20:29:25.945Z,17.93
2017-09-04T20:31:54.287Z,17.89
2017-09-04T20:34:22.696Z,17.99
2017-09-04T20:36:51.738Z,17.96
2017-09-04T20:39:21.105Z,17.88
2017-09-04T20:41:49.575Z,17.86
2017-09-04T20:44:18.489Z,17.91
2017-09-04T20:46:46.888Z,17.89
2017-09-04T20:49:15.854Z,17.83
2017-09-04T20:51:44.572Z,17.76
2017-09-04T20:54:12.942Z,17.77
2017-09-04T20:56:41.305Z,17.55
2017-09-04T20:59:10.172Z,17.70
2017-09-04T21:01:38.548Z,17.63
2017-09-04T21:04:06.920Z,17.44
2017-09-04T21:06:36.484Z,17.24
2017-09-04T21:09:04.852Z,17.06
2017-09-04T21:11:33.229Z,16.92
2017-09-04T21:14:02.715Z,16.79
2017-09-04T21:16:31.104Z,16.90
2017-09-04T21:18:59.489Z,16.96
2017-09-04T21:21:28.206Z,16.92
2017-09-04T21:23:56.920Z,16.97
2017-09-04T21:26:25.254Z,16.80
2017-09-04T21:28:53.985Z,16.73
2017-09-04T21:31:22.352Z,16.79
2017-09-04T21:33:51.503Z,16.79
2017-09-04T21:36:20.126Z,16.84
2017-09-04T21:38:49.098Z,16.61
2017-09-04T21:41:17.546Z,16.67
2017-09-04T21:43:47.208Z,16.63
2017-09-04T21:46:15.567Z,16.67
2017-09-04T21:48:44.912Z,16.63
2017-09-04T21:51:14.094Z,16.53
2017-09-04T21:53:43.365Z,16.57
2017-09-04T21:56:11.743Z,16.50
2017-09-04T21:58:40.391Z,16.46
2017-09-04T22:01:09.677Z,16.43
2017-09-04T22:03:38.022Z,16.36
2017-09-04T22:06:08.790Z,16.26
2017-09-04T22:08:37.199Z,16.29
2017-09-04T22:11:06.486Z,16.33
2017-09-04T22:13:35.290Z,16.28
2017-09-04T22:16:03.683Z,16.28
2017-09-04T22:18:32.129Z,16.31
2017-09-04T22:21:01.542Z,16.29
2017-09-04T22:23:29.931Z,16.02
2017-09-04T22:25:58.905Z,15.72
2017-09-04T22:28:27.892Z,15.76
2017-09-04T22:30:56.606Z,15.64
2017-09-04T22:33:27.419Z,15.71
2017-09-04T22:35:56.326Z,15.93
2017-09-04T22:38:24.698Z,15.91
2017-09-04T22:40:53.082Z,15.89
2017-09-04T22:43:21.793Z,15.84
2017-09-04T22:45:50.199Z,15.51
2017-09-04T22:48:18.633Z,15.42
2017-09-04T22:50:47.607Z,15.34
2017-09-04T22:53:16.005Z,15.35
2017-09-04T22:55:45.355Z,15.29
2017-09-04T22:58:14.957Z,15.32
2017-09-04T23:00:43.408Z,15.18
2017-09-04T23:03:12.705Z,15.27
2017-09-04T23:05:42.423Z,15.16
2017-09-04T23:08:11.707Z,15.11
2017-09-04T23:10:40.122Z,15.05
2017-09-04T23:13:08.892Z,15.01
2017-09-04T23:15:37.267Z,15.14
2017-09-04T23:18:05.659Z,15.14
2017-09-04T23:20:34.811Z,15.21
2017-09-04T23:23:03.398Z,15.21
2017-09-04T23:25:32.530Z,15.05
2017-09-04T23:28:01.438Z,15.00
2017-09-04T23:30:29.841Z,14.77
2017-09-04T23:32:58.251Z,14.89
2017-09-04T23:35:27.284Z,14.92
2017-09-04T23:37:56.547Z,14.96
2017-09-04T23:40:25.405Z,14.89
2017-09-04T23:42:54.833Z,14.94
2017-09-04T23:45:24.121Z,14.94
2017-09-04T23:47:54.258Z,14.97
2017-09-04T23:50:23.929Z,15.05
2017-09-04T23:52:52.396Z,14.92
2017-09-04T23:55:21.523Z,14.90
2017-09-04T23:57:51.328Z,14.96
